Cruz Bay, VI

10:47 PM AST on October 20, 2014 (GMT -0400)
Great Cruz Bay, St John | Change Station
CLOSE
Current Station
Personal Weather Station
Location: St John, VI
Elevation: 59 ft
Nearby Weather Stations

Elev 59 ft 18.33 °N, 64.79 °W | Updated 47 seconds ago

Clear
Clear
80.7 °F
Feels Like 86 °F
N
3.0
Wind Variable Wind from East
Gusts 5.0 mph

Today
High -- | Low -- °F
--% Chance of Precip.
Yesterday
High -- | Low -- °F
Precip. -- in
6:14 AM 5:53 PM
Waning Crescent, 8% visible
Pressure 29.96 in
Visibility 10.0 miles
Clouds Clear
Heat Index 86 °F
Dew Point 74 °F
Humidity 81%
Rainfall 0.00 in
Snow Depth Not available.
UV 0 out of 12
Pollen Not available.
Air Quality Not available.
Flu Activity No Activity
METAR TISX 210053Z AUTO 01004KT 10SM CLR 24/22 A2997 RMK AO2 SLP146 T02440222 TSNO

More Conditions Fewer Conditions

Pressure 29.96 in
Visibility 10.0 miles
Clouds Clear
Heat Index 86 °F
Dew Point 74 °F
Humidity 81%
Rainfall 0.00 in
Snow Depth Not available.
UV 0 out of 12
Pollen Not available.
Air Quality Not available.
Flu Activity No Activity
METAR TISX 210053Z AUTO 01004KT 10SM CLR 24/22 A2997 RMK AO2 SLP146 T02440222 TSNO

More Conditions Fewer Conditions

10-Day Weather Forecast

Almanac

Astronomy

Oct. 20, 2014 Rise Set
Actual Time 6:14 AM AST 5:53 PM AST
Civil Twilight 5:52 AM AST 6:15 PM AST
Nautical Twilight 5:26 AM AST 6:40 PM AST
Astronomical Twilight 5:01 AM AST 7:06 PM AST
Moon 3:25 AM AST (10/20) 3:51 PM AST (10/20)
Length of Visible Light 12h 23m
Length of Day
11h 38m
Tomorrow will be 0m 58s shorter.
Waning Crescent, 8% of the Moon is Illuminated
Today
Waning Crescent
Oct 23
New
Oct 30
First Quarter
Nov 6
Full
Nov 14
Last Quarter

Community

WunderPhotos

Upload Photos

1,763,580 photos uploaded!

Nearby

Snow Depth

Station Depth Elevation
No new snow has been reported.

Earthquake Activity

City Distance Mag. Time & Date
No recent earthquake activity has been reported nearby.
Minimum magnitude displayed is 2.5.

Coastal Water Temperatures

Place Temperature
Yabucoa Harbor, PR 84.9 °F
Esperanza, PR 84.9 °F
Charlotte Amalie, VI 86.0 °F

Nearby Weather Stations